»·PEaware :: AMX484 KLAS-KLAX

AMX484 :: KLAS-KLAX

FLIGHT INFORMATION

Flight Status: Arrived
Operator:
Aeromexico
More flights by this operator :: More flights under this callsign
Pilot: Alfredo R. (12181)
Aircraft: BOEING 737-800
(B738)
More flights by this aircraft type
Origin: KLAS McCarran Intl
United States
Destination: KLAX Los Angeles Intl
United States
More flights between these airports :: More routes between these airports
Route: +BOACH8 RIKII SHTNR ANJLL2
File this flight plan on PilotEdge
Remarks:
Altitude:
(Current/Filed)
28,000ft
Speed:
(Current/Filed)
425kts
Departed: 13-Feb-18 08:56 PM
Arrived: 13-Feb-18 09:43 PM
Distance/Time
Traveled:
205nm/0:47
Distance/Time
To Go:
Arrived

Flight Plot

Page will automatically refresh every two minutes.

Flight plan parsing failed; only flown route is shown


Map Options




Map Legend


Flown Route
Filed Route
Departure Airport
Arrival Airport
Navaid (VOR, NDB)
Fix

Horizontal Profiles

Position Reports

Time Latitude Longitude Heading Altitude Ground
Speed
13-Feb-18 20:40 36.079847 -115.139537 355 2073ft 0kts
13-Feb-18 20:43 36.079847 -115.139537 355 2073ft 0kts
13-Feb-18 20:44 36.079847 -115.139537 355 2073ft 0kts
13-Feb-18 20:45 36.079847 -115.139537 355 2073ft 0kts
13-Feb-18 20:46 36.079847 -115.139537 355 2073ft 0kts
13-Feb-18 20:47 36.079847 -115.139537 355 2073ft 0kts
13-Feb-18 20:48 36.079701 -115.139498 349 2074ft 2kts
13-Feb-18 20:49 36.079333 -115.139119 275 2074ft 1kts
13-Feb-18 20:50 36.079683 -115.138530 224 2070ft 2kts
13-Feb-18 20:51 36.079763 -115.138430 225 2069ft 0kts
13-Feb-18 20:52 36.079763 -115.138430 225 2069ft 0kts
13-Feb-18 20:53 36.079763 -115.138430 225 2069ft 0kts
13-Feb-18 20:54 36.079763 -115.138430 225 2069ft 0kts
13-Feb-18 20:55 36.079569 -115.138648 223 2071ft 0kts
13-Feb-18 20:56 36.079396 -115.138848 223 2072ft 2kts
13-Feb-18 20:57 36.078234 -115.138820 92 2075ft 13kts
13-Feb-18 20:58 36.078254 -115.132699 90 2057ft 17kts
13-Feb-18 20:59 36.078260 -115.127169 90 2043ft 17kts
13-Feb-18 21:00 36.078051 -115.122450 127 2036ft 8kts
13-Feb-18 21:01 36.077428 -115.121524 142 2037ft 0kts
13-Feb-18 21:02 36.076401 -115.122052 273 2038ft 11kts
13-Feb-18 21:03 36.076361 -115.139284 271 2079ft 123kts
13-Feb-18 21:04 36.077377 -115.199189 274 3402ft 196kts
13-Feb-18 21:05 36.064490 -115.268387 207 5118ft 227kts
13-Feb-18 21:06 35.997311 -115.291756 199 6163ft 257kts
13-Feb-18 21:07 35.926577 -115.308387 184 8752ft 267kts
13-Feb-18 21:08 35.849432 -115.315296 176 11054ft 301kts
13-Feb-18 21:09 35.764701 -115.304749 176 14005ft 315kts
13-Feb-18 21:10 35.677770 -115.294682 180 17205ft 318kts
13-Feb-18 21:11 35.589541 -115.298049 186 20100ft 322kts
13-Feb-18 21:12 35.500609 -115.306742 205 22752ft 320kts
13-Feb-18 21:13 35.423893 -115.361011 212 23263ft 318kts
13-Feb-18 21:14 35.347430 -115.416460 212 25157ft 323kts
13-Feb-18 21:15 35.270779 -115.472024 212 27338ft 328kts
13-Feb-18 21:16 35.192150 -115.529058 212 28222ft 355kts
13-Feb-18 21:17 35.107039 -115.599814 225 28218ft 378kts
13-Feb-18 21:18 35.035103 -115.692848 225 28237ft 377kts
13-Feb-18 21:19 34.963119 -115.785119 224 28229ft 373kts
13-Feb-18 21:20 34.891510 -115.876622 224 28275ft 374kts
13-Feb-18 21:21 34.819803 -115.968022 224 28281ft 373kts
13-Feb-18 21:22 34.748067 -116.059215 224 28278ft 374kts
13-Feb-18 21:23 34.675847 -116.150781 224 28275ft 377kts
13-Feb-18 21:24 34.603308 -116.242503 224 28269ft 375kts
13-Feb-18 21:25 34.531337 -116.333266 224 28271ft 374kts
13-Feb-18 21:26 34.459218 -116.423966 224 27597ft 374kts
13-Feb-18 21:27 34.398422 -116.520644 240 26044ft 372kts
13-Feb-18 21:28 34.352242 -116.633939 239 24524ft 380kts
13-Feb-18 21:29 34.308239 -116.742321 239 22993ft 337kts
13-Feb-18 21:30 34.267874 -116.842509 239 21767ft 333kts
13-Feb-18 21:31 34.227522 -116.942467 239 20346ft 328kts
13-Feb-18 21:32 34.194297 -117.044285 246 18929ft 328kts
13-Feb-18 21:33 34.166447 -117.148082 247 17501ft 324kts
13-Feb-18 21:34 34.138276 -117.250756 247 16077ft 323kts
13-Feb-18 21:35 34.110167 -117.352725 248 14623ft 310kts
13-Feb-18 21:36 34.084869 -117.451687 250 13396ft 311kts
13-Feb-18 21:37 34.059761 -117.551219 250 12171ft 308kts
13-Feb-18 21:38 34.034785 -117.648824 250 10957ft 302kts
13-Feb-18 21:39 34.017667 -117.739742 260 9685ft 270kts
13-Feb-18 21:40 34.009466 -117.827453 259 8386ft 261kts
13-Feb-18 21:41 34.001030 -117.913965 259 7171ft 259kts
13-Feb-18 21:42 33.993016 -117.995790 260 5904ft 237kts
13-Feb-18 21:43 33.985553 -118.070717 261 4674ft 207kts
13-Feb-18 21:44 33.979071 -118.136059 263 3930ft 185kts
13-Feb-18 21:45 33.973120 -118.197695 263 3551ft 179kts
13-Feb-18 21:46 33.967319 -118.254901 264 2591ft 170kts
13-Feb-18 21:47 33.961796 -118.308381 264 1651ft 146kts
13-Feb-18 21:48 33.956871 -118.356536 264 897ft 144kts
13-Feb-18 21:49 33.952016 -118.403260 264 153ft 139kts
13-Feb-18 21:50 33.949468 -118.425082 244 116ft 24kts
13-Feb-18 21:51 33.946362 -118.427089 89 109ft 11kts
13-Feb-18 21:52 33.946761 -118.423057 82 116ft 16kts
13-Feb-18 21:53 33.947335 -118.417489 83 119ft 16kts
13-Feb-18 21:54 33.947976 -118.412485 82 122ft 15kts
13-Feb-18 21:55 33.947580 -118.409108 183 122ft 9kts
13-Feb-18 21:56 33.946672 -118.408391 113 122ft 1kts
13-Feb-18 21:57 33.946656 -118.408346 113 122ft 0kts
13-Feb-18 21:58 33.946656 -118.408346 113 122ft 0kts
13-Feb-18 21:59 33.946656 -118.408346 113 122ft 0kts

Navigation Log

Ident Type
Flight plan parsing failed, navigation log unavailable